sensor_id;sensor_type;location;lat;lon;timestamp;pressure;altitude;pressure_sealevel;temperature;humidity
75192;BME280;63771;52.580;9.734;2024-03-08T00:00:05;101911.31;;;0.43;94.88
75192;BME280;63771;52.580;9.734;2024-03-08T00:02:36;101903.06;;;0.44;95.23
75192;BME280;63771;52.580;9.734;2024-03-08T00:05:03;101912.25;;;0.38;94.67
75192;BME280;63771;52.580;9.734;2024-03-08T00:07:28;101912.72;;;0.36;95.04
75192;BME280;63771;52.580;9.734;2024-03-08T00:09:54;101906.16;;;0.31;95.00
75192;BME280;63771;52.580;9.734;2024-03-08T00:12:19;101909.59;;;0.25;95.22
75192;BME280;63771;52.580;9.734;2024-03-08T00:14:45;101900.06;;;0.23;95.18
75192;BME280;63771;52.580;9.734;2024-03-08T00:17:10;101906.03;;;0.18;95.54
75192;BME280;63771;52.580;9.734;2024-03-08T00:19:36;101902.38;;;0.21;95.98
75192;BME280;63771;52.580;9.734;2024-03-08T00:22:02;101902.78;;;0.24;95.67
75192;BME280;63771;52.580;9.734;2024-03-08T00:24:27;101909.66;;;0.20;95.57
75192;BME280;63771;52.580;9.734;2024-03-08T00:26:54;101904.25;;;0.11;95.14
75192;BME280;63771;52.580;9.734;2024-03-08T00:29:23;101905.47;;;0.02;95.30
75192;BME280;63771;52.580;9.734;2024-03-08T00:31:48;101901.19;;;-0.05;95.47
75192;BME280;63771;52.580;9.734;2024-03-08T00:34:13;101893.00;;;-0.09;95.45
75192;BME280;63771;52.580;9.734;2024-03-08T00:36:38;101902.75;;;0.01;96.29
75192;BME280;63771;52.580;9.734;2024-03-08T00:39:04;101903.72;;;-0.10;95.85
75192;BME280;63771;52.580;9.734;2024-03-08T00:41:34;101902.78;;;-0.11;95.71
75192;BME280;63771;52.580;9.734;2024-03-08T00:44:02;101901.69;;;-0.13;95.94
75192;BME280;63771;52.580;9.734;2024-03-08T00:46:29;101896.66;;;-0.13;96.10
75192;BME280;63771;52.580;9.734;2024-03-08T00:48:56;101900.78;;;-0.13;96.15
75192;BME280;63771;52.580;9.734;2024-03-08T00:51:22;101896.88;;;-0.11;96.46
75192;BME280;63771;52.580;9.734;2024-03-08T00:53:47;101897.78;;;-0.11;96.32
75192;BME280;63771;52.580;9.734;2024-03-08T00:56:12;101896.63;;;-0.07;96.24
75192;BME280;63771;52.580;9.734;2024-03-08T00:58:37;101892.59;;;-0.18;96.07
75192;BME280;63771;52.580;9.734;2024-03-08T01:01:03;101890.78;;;-0.19;96.04
75192;BME280;63771;52.580;9.734;2024-03-08T01:03:30;101891.22;;;-0.21;96.23
75192;BME280;63771;52.580;9.734;2024-03-08T01:06:00;101885.31;;;-0.22;96.00
75192;BME280;63771;52.580;9.734;2024-03-08T01:08:26;101888.53;;;-0.23;96.22
75192;BME280;63771;52.580;9.734;2024-03-08T01:10:52;101881.22;;;-0.21;96.26
75192;BME280;63771;52.580;9.734;2024-03-08T01:13:18;101873.03;;;-0.20;96.33
75192;BME280;63771;52.580;9.734;2024-03-08T01:15:44;101872.75;;;-0.16;96.31
75192;BME280;63771;52.580;9.734;2024-03-08T01:18:09;101876.84;;;-0.17;95.71
75192;BME280;63771;52.580;9.734;2024-03-08T01:20:35;101872.09;;;-0.21;96.38
75192;BME280;63771;52.580;9.734;2024-03-08T01:23:01;101860.03;;;-0.23;96.33
75192;BME280;63771;52.580;9.734;2024-03-08T01:25:26;101860.28;;;-0.28;96.67
75192;BME280;63771;52.580;9.734;2024-03-08T01:27:52;101854.38;;;-0.28;96.63
75192;BME280;63771;52.580;9.734;2024-03-08T01:30:22;101856.91;;;-0.34;96.54
75192;BME280;63771;52.580;9.734;2024-03-08T01:32:48;101848.69;;;-0.33;96.38
75192;BME280;63771;52.580;9.734;2024-03-08T01:35:13;101842.56;;;-0.35;96.59
75192;BME280;63771;52.580;9.734;2024-03-08T01:37:39;101841.66;;;-0.35;96.68
75192;BME280;63771;52.580;9.734;2024-03-08T01:40:05;101841.66;;;-0.35;96.89
75192;BME280;63771;52.580;9.734;2024-03-08T01:42:30;101835.50;;;-0.37;96.42
75192;BME280;63771;52.580;9.734;2024-03-08T01:44:55;101839.59;;;-0.38;96.64
75192;BME280;63771;52.580;9.734;2024-03-08T01:47:21;101836.69;;;-0.41;96.25
75192;BME280;63771;52.580;9.734;2024-03-08T01:49:49;101828.94;;;-0.42;96.63
75192;BME280;63771;52.580;9.734;2024-03-08T01:52:15;101829.66;;;-0.49;96.83
75192;BME280;63771;52.580;9.734;2024-03-08T01:54:40;101820.13;;;-0.51;97.02
75192;BME280;63771;52.580;9.734;2024-03-08T01:57:06;101812.56;;;-0.46;97.23
75192;BME280;63771;52.580;9.734;2024-03-08T01:59:35;101809.81;;;-0.47;97.18
75192;BME280;63771;52.580;9.734;2024-03-08T02:02:01;101814.84;;;-0.47;97.01
75192;BME280;63771;52.580;9.734;2024-03-08T02:04:34;101809.84;;;-0.53;96.90
75192;BME280;63771;52.580;9.734;2024-03-08T02:07:01;101810.34;;;-0.56;97.51
75192;BME280;63771;52.580;9.734;2024-03-08T02:09:27;101815.81;;;-0.58;98.30
75192;BME280;63771;52.580;9.734;2024-03-08T02:11:52;101813.75;;;-0.55;98.08
75192;BME280;63771;52.580;9.734;2024-03-08T02:14:19;101802.81;;;-0.56;98.17
75192;BME280;63771;52.580;9.734;2024-03-08T02:16:45;101805.34;;;-0.56;98.34
75192;BME280;63771;52.580;9.734;2024-03-08T02:19:10;101802.13;;;-0.55;98.12
75192;BME280;63771;52.580;9.734;2024-03-08T02:21:35;101803.94;;;-0.54;98.05
75192;BME280;63771;52.580;9.734;2024-03-08T02:24:02;101799.38;;;-0.50;98.01
75192;BME280;63771;52.580;9.734;2024-03-08T02:26:28;101797.97;;;-0.48;97.90
75192;BME280;63771;52.580;9.734;2024-03-08T02:28:53;101795.28;;;-0.50;98.16
75192;BME280;63771;52.580;9.734;2024-03-08T02:31:19;101793.47;;;-0.51;98.09
75192;BME280;63771;52.580;9.734;2024-03-08T02:33:44;101791.66;;;-0.58;98.51
75192;BME280;63771;52.580;9.734;2024-03-08T02:36:12;101792.59;;;-0.57;98.74
75192;BME280;63771;52.580;9.734;2024-03-08T02:38:38;101786.41;;;-0.54;99.40
75192;BME280;63771;52.580;9.734;2024-03-08T02:41:03;101789.81;;;-0.53;98.63
75192;BME280;63771;52.580;9.734;2024-03-08T02:43:29;101785.03;;;-0.51;98.28
75192;BME280;63771;52.580;9.734;2024-03-08T02:45:54;101778.63;;;-0.49;98.32
75192;BME280;63771;52.580;9.734;2024-03-08T02:48:19;101774.31;;;-0.50;98.42
75192;BME280;63771;52.580;9.734;2024-03-08T02:50:46;101767.72;;;-0.50;97.95
75192;BME280;63771;52.580;9.734;2024-03-08T02:53:12;101774.56;;;-0.55;98.21
75192;BME280;63771;52.580;9.734;2024-03-08T02:55:38;101765.69;;;-0.58;98.62
75192;BME280;63771;52.580;9.734;2024-03-08T02:58:04;101764.09;;;-0.58;98.38
75192;BME280;63771;52.580;9.734;2024-03-08T03:00:30;101764.78;;;-0.59;98.53
75192;BME280;63771;52.580;9.734;2024-03-08T03:02:59;101761.59;;;-0.58;98.40
75192;BME280;63771;52.580;9.734;2024-03-08T03:05:25;101757.53;;;-0.63;98.54
75192;BME280;63771;52.580;9.734;2024-03-08T03:07:51;101757.53;;;-0.63;98.94
75192;BME280;63771;52.580;9.734;2024-03-08T03:10:17;101749.41;;;-0.73;99.39
75192;BME280;63771;52.580;9.734;2024-03-08T03:12:43;101750.53;;;-0.71;99.33
75192;BME280;63771;52.580;9.734;2024-03-08T03:15:10;101746.69;;;-0.74;99.93
75192;BME280;63771;52.580;9.734;2024-03-08T03:17:36;101744.81;;;-0.70;99.72
75192;BME280;63771;52.580;9.734;2024-03-08T03:20:02;101749.84;;;-0.70;99.87
75192;BME280;63771;52.580;9.734;2024-03-08T03:22:36;101738.72;;;-0.72;99.70
75192;BME280;63771;52.580;9.734;2024-03-08T03:25:02;101740.97;;;-0.68;99.69
75192;BME280;63771;52.580;9.734;2024-03-08T03:27:29;101733.00;;;-0.71;99.53
75192;BME280;63771;52.580;9.734;2024-03-08T03:29:55;101730.25;;;-0.67;99.63
75192;BME280;63771;52.580;9.734;2024-03-08T03:32:22;101732.75;;;-0.67;99.38
75192;BME280;63771;52.580;9.734;2024-03-08T03:34:48;101729.59;;;-0.71;99.37
75192;BME280;63771;52.580;9.734;2024-03-08T03:37:20;101726.19;;;-0.72;99.64
75192;BME280;63771;52.580;9.734;2024-03-08T03:39:45;101731.22;;;-0.77;99.86
75192;BME280;63771;52.580;9.734;2024-03-08T03:42:17;101729.84;;;-0.75;99.79
75192;BME280;63771;52.580;9.734;2024-03-08T03:44:46;101734.41;;;-0.79;100.00
75192;BME280;63771;52.580;9.734;2024-03-08T03:47:12;101724.88;;;-0.81;99.96
75192;BME280;63771;52.580;9.734;2024-03-08T03:49:38;101722.81;;;-0.84;100.00
75192;BME280;63771;52.580;9.734;2024-03-08T03:52:04;101726.88;;;-0.79;100.00
75192;BME280;63771;52.580;9.734;2024-03-08T03:54:29;101724.16;;;-0.80;100.00
75192;BME280;63771;52.580;9.734;2024-03-08T03:56:56;101725.78;;;-0.81;100.00
75192;BME280;63771;52.580;9.734;2024-03-08T03:59:21;101730.13;;;-0.85;100.00
75192;BME280;63771;52.580;9.734;2024-03-08T04:01:47;101729.91;;;-0.87;100.00
75192;BME280;63771;52.580;9.734;2024-03-08T04:04:12;101730.13;;;-0.85;100.00
75192;BME280;63771;52.580;9.734;2024-03-08T04:06:38;101722.84;;;-0.89;100.00
75192;BME280;63771;52.580;9.734;2024-03-08T04:09:03;101729.91;;;-0.87;100.00
75192;BME280;63771;52.580;9.734;2024-03-08T04:11:29;101725.31;;;-0.84;100.00
75192;BME280;63771;52.580;9.734;2024-03-08T04:13:55;101716.69;;;-0.86;100.00
75192;BME280;63771;52.580;9.734;2024-03-08T04:16:21;101715.78;;;-0.86;100.00
75192;BME280;63771;52.580;9.734;2024-03-08T04:18:46;101717.34;;;-0.81;100.00
75192;BME280;63771;52.580;9.734;2024-03-08T04:21:12;101722.19;;;-0.88;100.00
75192;BME280;63771;52.580;9.734;2024-03-08T04:23:37;101723.34;;;-0.92;100.00
75192;BME280;63771;52.580;9.734;2024-03-08T04:26:03;101720.38;;;-0.95;100.00
75192;BME280;63771;52.580;9.734;2024-03-08T04:28:29;101722.66;;;-0.91;100.00
75192;BME280;63771;52.580;9.734;2024-03-08T04:30:55;101723.56;;;-0.90;100.00
75192;BME280;63771;52.580;9.734;2024-03-08T04:33:20;101727.00;;;-0.95;100.00
75192;BME280;63771;52.580;9.734;2024-03-08T04:35:47;101723.88;;;-1.06;100.00
75192;BME280;63771;52.580;9.734;2024-03-08T04:38:12;101724.78;;;-1.05;100.00
75192;BME280;63771;52.580;9.734;2024-03-08T04:40:37;101715.66;;;-1.05;100.00
75192;BME280;63771;52.580;9.734;2024-03-08T04:43:03;101724.53;;;-1.01;100.00
75192;BME280;63771;52.580;9.734;2024-03-08T04:45:29;101716.81;;;-1.02;100.00
75192;BME280;63771;52.580;9.734;2024-03-08T04:47:54;101714.13;;;-1.10;100.00
75192;BME280;63771;52.580;9.734;2024-03-08T04:50:19;101719.13;;;-1.10;100.00
75192;BME280;63771;52.580;9.734;2024-03-08T04:52:45;101719.13;;;-1.15;100.00
75192;BME280;63771;52.580;9.734;2024-03-08T04:55:11;101712.81;;;-1.19;100.00
75192;BME280;63771;52.580;9.734;2024-03-08T04:57:36;101709.81;;;-1.16;100.00
75192;BME280;63771;52.580;9.734;2024-03-08T05:00:03;101710.50;;;-1.17;100.00
75192;BME280;63771;52.580;9.734;2024-03-08T05:02:32;101713.22;;;-1.16;100.00
75192;BME280;63771;52.580;9.734;2024-03-08T05:04:58;101707.31;;;-1.16;100.00
75192;BME280;63771;52.580;9.734;2024-03-08T05:07:23;101704.59;;;-1.18;100.00
75192;BME280;63771;52.580;9.734;2024-03-08T05:09:49;101706.84;;;-1.14;100.00
75192;BME280;63771;52.580;9.734;2024-03-08T05:12:18;101703.72;;;-1.24;100.00
75192;BME280;63771;52.580;9.734;2024-03-08T05:14:45;101707.81;;;-1.24;100.00
75192;BME280;63771;52.580;9.734;2024-03-08T05:17:11;101703.03;;;-1.23;100.00
75192;BME280;63771;52.580;9.734;2024-03-08T05:19:37;101701.91;;;-1.25;100.00
75192;BME280;63771;52.580;9.734;2024-03-08T05:22:02;101707.16;;;-1.29;100.00
75192;BME280;63771;52.580;9.734;2024-03-08T05:24:28;101701.50;;;-1.34;100.00
75192;BME280;63771;52.580;9.734;2024-03-08T05:26:54;101709.22;;;-1.32;100.00
75192;BME280;63771;52.580;9.734;2024-03-08T05:29:20;101707.84;;;-1.30;100.00
75192;BME280;63771;52.580;9.734;2024-03-08T05:31:50;101703.28;;;-1.27;100.00
75192;BME280;63771;52.580;9.734;2024-03-08T05:34:17;101695.75;;;-1.27;100.00
75192;BME280;63771;52.580;9.734;2024-03-08T05:36:44;101697.13;;;-1.23;100.00
75192;BME280;63771;52.580;9.734;2024-03-08T05:39:11;101696.66;;;-1.26;100.00
75192;BME280;63771;52.580;9.734;2024-03-08T05:41:38;101691.25;;;-1.29;100.00
75192;BME280;63771;52.580;9.734;2024-03-08T05:44:04;101684.84;;;-1.27;100.00
75192;BME280;63771;52.580;9.734;2024-03-08T05:46:29;101690.06;;;-1.26;100.00
75192;BME280;63771;52.580;9.734;2024-03-08T05:48:55;101695.31;;;-1.24;100.00
75192;BME280;63771;52.580;9.734;2024-03-08T05:51:20;101690.53;;;-1.23;100.00
75192;BME280;63771;52.580;9.734;2024-03-08T05:53:46;101690.53;;;-1.23;100.00
75192;BME280;63771;52.580;9.734;2024-03-08T05:56:12;101683.00;;;-1.23;100.00
75192;BME280;63771;52.580;9.734;2024-03-08T05:58:37;101683.69;;;-1.24;100.00
75192;BME280;63771;52.580;9.734;2024-03-08T06:01:02;101689.13;;;-1.21;100.00
75192;BME280;63771;52.580;9.734;2024-03-08T06:03:32;101685.28;;;-1.19;100.00
75192;BME280;63771;52.580;9.734;2024-03-08T06:05:58;101682.53;;;-1.20;100.00
75192;BME280;63771;52.580;9.734;2024-03-08T06:08:23;101679.13;;;-1.21;100.00
75192;BME280;63771;52.580;9.734;2024-03-08T06:10:55;101683.19;;;-1.16;100.00
75192;BME280;63771;52.580;9.734;2024-03-08T06:13:20;101681.59;;;-1.15;100.00
75192;BME280;63771;52.580;9.734;2024-03-08T06:15:45;101685.03;;;-1.15;100.00
75192;BME280;63771;52.580;9.734;2024-03-08T06:18:11;101682.94;;;-1.12;100.00
75192;BME280;63771;52.580;9.734;2024-03-08T06:20:36;101682.94;;;-1.12;100.00
75192;BME280;63771;52.580;9.734;2024-03-08T06:23:02;101688.13;;;-1.05;100.00
75192;BME280;63771;52.580;9.734;2024-03-08T06:25:27;101681.91;;;-0.95;100.00
75192;BME280;63771;52.580;9.734;2024-03-08T06:27:52;101688.75;;;-0.94;100.00
75192;BME280;63771;52.580;9.734;2024-03-08T06:30:18;101686.44;;;-0.87;100.00
75192;BME280;63771;52.580;9.734;2024-03-08T06:32:43;101683.84;;;-0.76;100.00
75192;BME280;63771;52.580;9.734;2024-03-08T06:35:08;101683.16;;;-0.75;99.93
75192;BME280;63771;52.580;9.734;2024-03-08T06:37:35;101678.34;;;-0.73;99.78
75192;BME280;63771;52.580;9.734;2024-03-08T06:40:01;101682.91;;;-0.71;99.75
75192;BME280;63771;52.580;9.734;2024-03-08T06:42:28;101685.84;;;-0.68;99.58
75192;BME280;63771;52.580;9.734;2024-03-08T06:44:54;101674.44;;;-0.66;99.79
75192;BME280;63771;52.580;9.734;2024-03-08T06:47:21;101682.81;;;-0.60;99.63
75192;BME280;63771;52.580;9.734;2024-03-08T06:49:46;101678.91;;;-0.58;99.30
75192;BME280;63771;52.580;9.734;2024-03-08T06:52:12;101685.47;;;-0.53;99.23
75192;BME280;63771;52.580;9.734;2024-03-08T06:54:37;101677.69;;;-0.48;99.14
75192;BME280;63771;52.580;9.734;2024-03-08T06:57:04;101679.94;;;-0.44;99.17
75192;BME280;63771;52.580;9.734;2024-03-08T06:59:30;101678.53;;;-0.42;99.20
75192;BME280;63771;52.580;9.734;2024-03-08T07:01:55;101686.25;;;-0.35;99.10
75192;BME280;63771;52.580;9.734;2024-03-08T07:04:21;101684.44;;;-0.36;98.85
75192;BME280;63771;52.580;9.734;2024-03-08T07:06:49;101678.72;;;-0.35;98.32
75192;BME280;63771;52.580;9.734;2024-03-08T07:09:18;101680.69;;;-0.27;98.20
75192;BME280;63771;52.580;9.734;2024-03-08T07:11:43;101682.53;;;-0.26;97.99
75192;BME280;63771;52.580;9.734;2024-03-08T07:14:08;101680.44;;;-0.23;97.56
75192;BME280;63771;52.580;9.734;2024-03-08T07:16:34;101681.06;;;-0.18;97.89
75192;BME280;63771;52.580;9.734;2024-03-08T07:19:04;101668.75;;;-0.17;97.53
75192;BME280;63771;52.580;9.734;2024-03-08T07:21:30;101679.84;;;-0.09;97.75
75192;BME280;63771;52.580;9.734;2024-03-08T07:23:56;101678.66;;;-0.06;97.71
75192;BME280;63771;52.580;9.734;2024-03-08T07:26:24;101682.69;;;-0.01;97.20
75192;BME280;63771;52.580;9.734;2024-03-08T07:28:50;101683.56;;;0.06;97.07
75192;BME280;63771;52.580;9.734;2024-03-08T07:31:15;101681.66;;;0.10;96.94
75192;BME280;63771;52.580;9.734;2024-03-08T07:33:56;101668.16;;;0.15;96.91
75192;BME280;63771;52.580;9.734;2024-03-08T07:36:22;101671.09;;;0.18;95.84
75192;BME280;63771;52.580;9.734;2024-03-08T07:38:47;101669.94;;;0.22;96.22
75192;BME280;63771;52.580;9.734;2024-03-08T07:41:13;101660.53;;;0.27;96.25
75192;BME280;63771;52.580;9.734;2024-03-08T07:43:38;101665.88;;;0.35;96.03
75192;BME280;63771;52.580;9.734;2024-03-08T07:46:03;101664.63;;;0.44;95.48
75192;BME280;63771;52.580;9.734;2024-03-08T07:48:29;101660.50;;;0.45;95.03
75192;BME280;63771;52.580;9.734;2024-03-08T07:50:56;101657.22;;;0.51;94.76
75192;BME280;63771;52.580;9.734;2024-03-08T07:53:21;101654.88;;;0.59;95.27
75192;BME280;63771;52.580;9.734;2024-03-08T07:55:47;101661.44;;;0.64;94.37
75192;BME280;63771;52.580;9.734;2024-03-08T07:58:12;101663.63;;;0.68;94.05
75192;BME280;63771;52.580;9.734;2024-03-08T08:00:38;101656.25;;;0.75;94.27
75192;BME280;63771;52.580;9.734;2024-03-08T08:03:04;101657.97;;;0.82;94.07
75192;BME280;63771;52.580;9.734;2024-03-08T08:05:30;101649.44;;;0.87;94.02
75192;BME280;63771;52.580;9.734;2024-03-08T08:08:00;101647.97;;;0.94;93.73
75192;BME280;63771;52.580;9.734;2024-03-08T08:10:28;101641.66;;;1.03;93.49
75192;BME280;63771;52.580;9.734;2024-03-08T08:12:53;101634.94;;;1.10;92.63
75192;BME280;63771;52.580;9.734;2024-03-08T08:15:19;101634.03;;;1.09;93.11
75192;BME280;63771;52.580;9.734;2024-03-08T08:17:45;101638.91;;;1.20;92.59
75192;BME280;63771;52.580;9.734;2024-03-08T08:20:11;101638.09;;;1.27;91.24
75192;BME280;63771;52.580;9.734;2024-03-08T08:22:38;101632.47;;;1.35;91.65
75192;BME280;63771;52.580;9.734;2024-03-08T08:25:04;101632.59;;;1.42;91.42
75192;BME280;63771;52.580;9.734;2024-03-08T08:27:29;101627.28;;;1.46;91.59
75192;BME280;63771;52.580;9.734;2024-03-08T08:29:55;101624.66;;;1.52;91.68
75192;BME280;63771;52.580;9.734;2024-03-08T08:32:21;101628.34;;;1.61;91.10
75192;BME280;63771;52.580;9.734;2024-03-08T08:34:46;101625.72;;;1.67;90.52
75192;BME280;63771;52.580;9.734;2024-03-08T08:37:11;101625.66;;;1.72;90.47
75192;BME280;63771;52.580;9.734;2024-03-08T08:39:37;101629.16;;;1.80;88.21
75192;BME280;63771;52.580;9.734;2024-03-08T08:42:03;101628.16;;;1.85;89.28
75192;BME280;63771;52.580;9.734;2024-03-08T08:44:28;101622.28;;;1.92;88.60
75192;BME280;63771;52.580;9.734;2024-03-08T08:46:54;101620.78;;;1.99;88.16
75192;BME280;63771;52.580;9.734;2024-03-08T08:49:19;101613.31;;;2.06;87.43
75192;BME280;63771;52.580;9.734;2024-03-08T08:51:52;101615.72;;;2.12;87.54
75192;BME280;63771;52.580;9.734;2024-03-08T08:54:18;101618.00;;;2.23;87.78
75192;BME280;63771;52.580;9.734;2024-03-08T08:56:44;101611.81;;;2.34;86.77
75192;BME280;63771;52.580;9.734;2024-03-08T08:59:09;101605.06;;;2.40;85.67
75192;BME280;63771;52.580;9.734;2024-03-08T09:01:35;101601.50;;;2.45;85.28
75192;BME280;63771;52.580;9.734;2024-03-08T09:04:00;101603.00;;;2.50;85.08
75192;BME280;63771;52.580;9.734;2024-03-08T09:06:25;101599.84;;;2.58;85.18
75192;BME280;63771;52.580;9.734;2024-03-08T09:08:51;101603.34;;;2.66;84.86
75192;BME280;63771;52.580;9.734;2024-03-08T09:11:16;101596.22;;;2.76;83.81
75192;BME280;63771;52.580;9.734;2024-03-08T09:13:44;101589.66;;;2.84;83.50
75192;BME280;63771;52.580;9.734;2024-03-08T09:16:11;101592.22;;;2.91;83.74
75192;BME280;63771;52.580;9.734;2024-03-08T09:18:36;101585.66;;;2.99;84.06
75192;BME280;63771;52.580;9.734;2024-03-08T09:21:01;101580.06;;;3.01;84.99
75192;BME280;63771;52.580;9.734;2024-03-08T09:23:28;101579.78;;;3.12;84.14
75192;BME280;63771;52.580;9.734;2024-03-08T09:25:58;101570.84;;;3.22;82.59
75192;BME280;63771;52.580;9.734;2024-03-08T09:28:23;101568.00;;;3.26;83.20
75192;BME280;63771;52.580;9.734;2024-03-08T09:30:50;101567.31;;;3.34;83.39
75192;BME280;63771;52.580;9.734;2024-03-08T09:33:15;101558.38;;;3.43;81.11
75192;BME280;63771;52.580;9.734;2024-03-08T09:35:45;101560.94;;;3.50;79.97
75192;BME280;63771;52.580;9.734;2024-03-08T09:38:12;101558.06;;;3.54;79.62
75192;BME280;63771;52.580;9.734;2024-03-08T09:40:38;101563.16;;;3.61;80.79
75192;BME280;63771;52.580;9.734;2024-03-08T09:43:05;101556.34;;;3.67;81.27
75192;BME280;63771;52.580;9.734;2024-03-08T09:45:31;101549.34;;;3.72;79.94
75192;BME280;63771;52.580;9.734;2024-03-08T09:48:01;101542.50;;;3.78;80.30
75192;BME280;63771;52.580;9.734;2024-03-08T09:50:26;101536.06;;;3.87;80.23
75192;BME280;63771;52.580;9.734;2024-03-08T09:52:53;101536.25;;;3.96;79.54
75192;BME280;63771;52.580;9.734;2024-03-08T09:55:22;101534.28;;;4.01;77.55
75192;BME280;63771;52.580;9.734;2024-03-08T09:57:48;101532.69;;;4.08;77.69
75192;BME280;63771;52.580;9.734;2024-03-08T10:00:33;101529.44;;;4.16;76.83
75192;BME280;63771;52.580;9.734;2024-03-08T10:03:02;101523.31;;;4.22;77.33
75192;BME280;63771;52.580;9.734;2024-03-08T10:05:28;101514.66;;;4.27;78.05
75192;BME280;63771;52.580;9.734;2024-03-08T10:07:55;101506.41;;;4.35;75.72
75192;BME280;63771;52.580;9.734;2024-03-08T10:10:20;101515.44;;;4.40;75.66
75192;BME280;63771;52.580;9.734;2024-03-08T10:12:48;101509.47;;;4.47;75.28
75192;BME280;63771;52.580;9.734;2024-03-08T10:15:15;101499.19;;;4.52;76.25
75192;BME280;63771;52.580;9.734;2024-03-08T10:17:41;101497.75;;;4.54;74.40
75192;BME280;63771;52.580;9.734;2024-03-08T10:20:15;101492.69;;;4.61;75.43
75192;BME280;63771;52.580;9.734;2024-03-08T10:22:41;101489.25;;;4.68;74.93
75192;BME280;63771;52.580;9.734;2024-03-08T10:25:10;101488.34;;;4.75;73.91
75192;BME280;63771;52.580;9.734;2024-03-08T10:27:36;101490.50;;;4.79;73.92
75192;BME280;63771;52.580;9.734;2024-03-08T10:30:02;101480.94;;;4.83;72.57
75192;BME280;63771;52.580;9.734;2024-03-08T10:32:28;101480.56;;;4.87;71.96
75192;BME280;63771;52.580;9.734;2024-03-08T10:34:53;101472.41;;;4.90;72.95
75192;BME280;63771;52.580;9.734;2024-03-08T10:37:22;101476.91;;;5.00;73.88
75192;BME280;63771;52.580;9.734;2024-03-08T10:40:03;101468.97;;;5.04;72.58
75192;BME280;63771;52.580;9.734;2024-03-08T10:45:37;101460.63;;;5.19;70.69
75192;BME280;63771;52.580;9.734;2024-03-08T10:48:17;101460.59;;;5.26;73.30
75192;BME280;63771;52.580;9.734;2024-03-08T10:50:48;101454.06;;;5.35;72.59
75192;BME280;63771;52.580;9.734;2024-03-08T10:53:18;101463.22;;;5.42;70.85
75192;BME280;63771;52.580;9.734;2024-03-08T10:55:46;101457.81;;;5.46;71.90
75192;BME280;63771;52.580;9.734;2024-03-08T10:58:12;101446.41;;;5.49;70.52
75192;BME280;63771;52.580;9.734;2024-03-08T11:00:38;101455.59;;;5.56;71.44
75192;BME280;63771;52.580;9.734;2024-03-08T11:03:04;101446.16;;;5.62;71.47
75192;BME280;63771;52.580;9.734;2024-03-08T11:08:05;101450.09;;;5.74;69.89
75192;BME280;63771;52.580;9.734;2024-03-08T11:10:30;101444.59;;;5.79;70.59
75192;BME280;63771;52.580;9.734;2024-03-08T11:12:56;101437.53;;;5.83;69.20
75192;BME280;63771;52.580;9.734;2024-03-08T11:15:21;101436.78;;;5.84;67.67
75192;BME280;63771;52.580;9.734;2024-03-08T11:17:49;101434.63;;;5.87;69.79
75192;BME280;63771;52.580;9.734;2024-03-08T11:20:19;101433.69;;;5.94;69.47
75192;BME280;63771;52.580;9.734;2024-03-08T11:22:53;101434.22;;;5.98;68.36
75192;BME280;63771;52.580;9.734;2024-03-08T11:25:32;101414.47;;;6.03;67.04
75192;BME280;63771;52.580;9.734;2024-03-08T11:28:08;101403.78;;;6.06;67.08
75192;BME280;63771;52.580;9.734;2024-03-08T11:30:35;101399.78;;;6.08;67.93
75192;BME280;63771;52.580;9.734;2024-03-08T11:33:03;101403.38;;;6.10;67.48
75192;BME280;63771;52.580;9.734;2024-03-08T11:35:28;101393.75;;;6.14;69.64
75192;BME280;63771;52.580;9.734;2024-03-08T11:37:54;101385.75;;;6.18;67.59
75192;BME280;63771;52.580;9.734;2024-03-08T11:40:19;101396.72;;;6.26;67.51
75192;BME280;63771;52.580;9.734;2024-03-08T11:42:47;101387.81;;;6.30;69.59
75192;BME280;63771;52.580;9.734;2024-03-08T11:45:17;101374.78;;;6.34;68.60
75192;BME280;63771;52.580;9.734;2024-03-08T11:47:43;101369.13;;;6.36;68.30
75192;BME280;63771;52.580;9.734;2024-03-08T11:50:12;101364.25;;;6.38;68.59
75192;BME280;63771;52.580;9.734;2024-03-08T11:52:37;101366.19;;;6.40;68.10
75192;BME280;63771;52.580;9.734;2024-03-08T11:55:03;101359.84;;;6.44;68.17
75192;BME280;63771;52.580;9.734;2024-03-08T11:57:30;101351.13;;;6.42;66.69
75192;BME280;63771;52.580;9.734;2024-03-08T11:59:57;101353.78;;;6.50;68.65
75192;BME280;63771;52.580;9.734;2024-03-08T12:02:26;101355.41;;;6.50;66.21
75192;BME280;63771;52.580;9.734;2024-03-08T12:04:56;101355.03;;;6.54;67.94
75192;BME280;63771;52.580;9.734;2024-03-08T12:07:22;101331.13;;;6.52;67.45
75192;BME280;63771;52.580;9.734;2024-03-08T12:10:14;101335.06;;;6.57;68.31
75192;BME280;63771;52.580;9.734;2024-03-08T12:12:43;101331.22;;;6.61;68.13
75192;BME280;63771;52.580;9.734;2024-03-08T12:15:09;101332.75;;;6.67;67.39
75192;BME280;63771;52.580;9.734;2024-03-08T12:17:37;101333.84;;;6.69;67.69
75192;BME280;63771;52.580;9.734;2024-03-08T12:22:50;101312.66;;;6.69;68.67
75192;BME280;63771;52.580;9.734;2024-03-08T12:25:18;101308.41;;;6.76;67.20
75192;BME280;63771;52.580;9.734;2024-03-08T12:27:45;101301.28;;;6.81;68.17
75192;BME280;63771;52.580;9.734;2024-03-08T12:30:26;101299.97;;;6.85;67.43
75192;BME280;63771;52.580;9.734;2024-03-08T12:32:55;101299.53;;;6.89;67.08
75192;BME280;63771;52.580;9.734;2024-03-08T12:35:30;101281.38;;;6.93;68.26
75192;BME280;63771;52.580;9.734;2024-03-08T12:37:57;101272.19;;;7.02;69.04
75192;BME280;63771;52.580;9.734;2024-03-08T12:40:30;101276.44;;;7.10;67.49
75192;BME280;63771;52.580;9.734;2024-03-08T12:43:00;101257.09;;;7.19;67.39
75192;BME280;63771;52.580;9.734;2024-03-08T12:45:26;101265.91;;;7.23;66.45
75192;BME280;63771;52.580;9.734;2024-03-08T12:47:55;101259.84;;;7.29;68.13
75192;BME280;63771;52.580;9.734;2024-03-08T12:50:23;101267.78;;;7.32;64.33
75192;BME280;63771;52.580;9.734;2024-03-08T12:52:50;101252.22;;;7.29;63.73
75192;BME280;63771;52.580;9.734;2024-03-08T12:55:16;101250.28;;;7.27;64.46
75192;BME280;63771;52.580;9.734;2024-03-08T12:57:43;101244.59;;;7.29;64.86